LEXJ/SDR METAR and TAF weather

Enter ICAO airport designator
Station Type Date Time Source
LEXJ METAR 2022/06/25 23:00 UTC NOAA

LEXJ 252300Z AUTO 19006KT 150V230 9999 OVC055 14/12 Q1016


Station Type Date Time Source
LEXJ Decoded METAR 2022/06/25 23:00 UTC NOAA

Santander / Parayas, Spain (LEXJ) 43-26N 003-49W 9M
Jun 25, 2022 - 07:00 PM EDT / 2022.06.25 2300 UTC
Wind: from the S (190 degrees) at 7 MPH (6 KT) (direction variable):0
Visibility: greater than 7 mile(s):0
Sky conditions: overcast
Temperature: 57 F (14 C)
Dew Point: 53 F (12 C)
Relative Humidity: 87%
Pressure (altimeter): 30.00 in. Hg (1016 hPa)
ob: LEXJ 252300Z AUTO 19006KT 150V230 9999 OVC055 14/12 Q1016
cycle: 23

Station Type Date Time Source
LEXJ TAF 2022/06/25 21:27 UTC NOAA

TAF LEXJ 252000Z 2521/2621 28005KT 9999 SCT025 BKN040 TX17/2614Z TN12/2605Z PROB40
TEMPO 2606/2618 3000 RA BKN010

Example: see airport list